sensor_id;sensor_type;location;lat;lon;timestamp;P1;durP1;ratioP1;P2;durP2;ratioP2
13590;SDS011;6866;50.778;7.206;2023-07-08T00:01:41;15.43;;;6.75;;
13590;SDS011;6866;50.778;7.206;2023-07-08T00:04:07;11.98;;;7.38;;
13590;SDS011;6866;50.778;7.206;2023-07-08T00:06:32;10.13;;;6.82;;
13590;SDS011;6866;50.778;7.206;2023-07-08T00:09:00;10.93;;;6.57;;
13590;SDS011;6866;50.778;7.206;2023-07-08T00:11:26;10.20;;;6.72;;
13590;SDS011;6866;50.778;7.206;2023-07-08T00:13:53;11.43;;;6.88;;
13590;SDS011;6866;50.778;7.206;2023-07-08T00:16:19;11.18;;;6.60;;
13590;SDS011;6866;50.778;7.206;2023-07-08T00:18:45;10.98;;;7.13;;
13590;SDS011;6866;50.778;7.206;2023-07-08T00:21:11;11.25;;;6.80;;
13590;SDS011;6866;50.778;7.206;2023-07-08T00:23:47;11.55;;;6.70;;
13590;SDS011;6866;50.778;7.206;2023-07-08T00:26:15;11.05;;;6.05;;
13590;SDS011;6866;50.778;7.206;2023-07-08T00:28:42;8.80;;;6.00;;
13590;SDS011;6866;50.778;7.206;2023-07-08T00:31:11;9.77;;;6.75;;
13590;SDS011;6866;50.778;7.206;2023-07-08T00:33:36;13.35;;;6.93;;
13590;SDS011;6866;50.778;7.206;2023-07-08T00:36:07;11.82;;;6.78;;
13590;SDS011;6866;50.778;7.206;2023-07-08T00:38:37;11.00;;;6.68;;
13590;SDS011;6866;50.778;7.206;2023-07-08T00:43:38;10.05;;;6.55;;
13590;SDS011;6866;50.778;7.206;2023-07-08T00:48:43;11.63;;;6.80;;
13590;SDS011;6866;50.778;7.206;2023-07-08T00:51:10;11.43;;;6.53;;
13590;SDS011;6866;50.778;7.206;2023-07-08T00:53:37;10.32;;;6.22;;
13590;SDS011;6866;50.778;7.206;2023-07-08T00:56:08;9.93;;;6.47;;
13590;SDS011;6866;50.778;7.206;2023-07-08T00:58:45;10.32;;;6.20;;
13590;SDS011;6866;50.778;7.206;2023-07-08T01:04:00;10.18;;;5.95;;
13590;SDS011;6866;50.778;7.206;2023-07-08T01:06:36;10.32;;;6.63;;
13590;SDS011;6866;50.778;7.206;2023-07-08T01:09:07;10.95;;;7.20;;
13590;SDS011;6866;50.778;7.206;2023-07-08T01:11:35;11.65;;;6.45;;
13590;SDS011;6866;50.778;7.206;2023-07-08T01:14:04;13.57;;;6.80;;
13590;SDS011;6866;50.778;7.206;2023-07-08T01:16:30;11.98;;;7.32;;
13590;SDS011;6866;50.778;7.206;2023-07-08T01:19:00;11.15;;;7.43;;
13590;SDS011;6866;50.778;7.206;2023-07-08T01:21:28;10.85;;;6.75;;
13590;SDS011;6866;50.778;7.206;2023-07-08T01:23:57;10.95;;;6.78;;
13590;SDS011;6866;50.778;7.206;2023-07-08T01:26:24;10.35;;;6.63;;
13590;SDS011;6866;50.778;7.206;2023-07-08T01:28:51;12.15;;;6.65;;
13590;SDS011;6866;50.778;7.206;2023-07-08T01:31:19;11.85;;;6.50;;
13590;SDS011;6866;50.778;7.206;2023-07-08T01:33:47;10.35;;;6.90;;
13590;SDS011;6866;50.778;7.206;2023-07-08T01:36:12;11.00;;;6.53;;
13590;SDS011;6866;50.778;7.206;2023-07-08T01:38:38;10.68;;;6.50;;
13590;SDS011;6866;50.778;7.206;2023-07-08T01:41:05;13.70;;;7.18;;
13590;SDS011;6866;50.778;7.206;2023-07-08T01:43:30;11.30;;;7.28;;
13590;SDS011;6866;50.778;7.206;2023-07-08T01:45:57;12.23;;;6.75;;
13590;SDS011;6866;50.778;7.206;2023-07-08T01:48:25;10.45;;;6.43;;
13590;SDS011;6866;50.778;7.206;2023-07-08T01:50:58;11.90;;;6.82;;
13590;SDS011;6866;50.778;7.206;2023-07-08T01:53:29;11.02;;;6.82;;
13590;SDS011;6866;50.778;7.206;2023-07-08T01:55:57;12.75;;;6.95;;
13590;SDS011;6866;50.778;7.206;2023-07-08T01:58:23;14.02;;;7.05;;
13590;SDS011;6866;50.778;7.206;2023-07-08T02:00:48;10.50;;;6.80;;
13590;SDS011;6866;50.778;7.206;2023-07-08T02:03:15;11.88;;;7.03;;
13590;SDS011;6866;50.778;7.206;2023-07-08T02:05:40;9.52;;;6.45;;
13590;SDS011;6866;50.778;7.206;2023-07-08T02:08:06;12.30;;;6.85;;
13590;SDS011;6866;50.778;7.206;2023-07-08T02:10:32;10.55;;;6.65;;
13590;SDS011;6866;50.778;7.206;2023-07-08T02:12:57;12.27;;;6.90;;
13590;SDS011;6866;50.778;7.206;2023-07-08T02:15:23;11.88;;;6.78;;
13590;SDS011;6866;50.778;7.206;2023-07-08T02:17:48;12.05;;;6.20;;
13590;SDS011;6866;50.778;7.206;2023-07-08T02:20:15;10.85;;;6.03;;
13590;SDS011;6866;50.778;7.206;2023-07-08T02:22:41;12.13;;;6.05;;
13590;SDS011;6866;50.778;7.206;2023-07-08T02:25:06;10.85;;;6.05;;
13590;SDS011;6866;50.778;7.206;2023-07-08T02:27:34;9.52;;;5.72;;
13590;SDS011;6866;50.778;7.206;2023-07-08T02:30:00;11.27;;;5.55;;
13590;SDS011;6866;50.778;7.206;2023-07-08T02:32:25;11.57;;;5.00;;
13590;SDS011;6866;50.778;7.206;2023-07-08T02:34:51;6.80;;;4.60;;
13590;SDS011;6866;50.778;7.206;2023-07-08T02:37:17;10.20;;;4.80;;
13590;SDS011;6866;50.778;7.206;2023-07-08T02:39:43;9.20;;;4.85;;
13590;SDS011;6866;50.778;7.206;2023-07-08T02:42:09;13.27;;;4.75;;
13590;SDS011;6866;50.778;7.206;2023-07-08T02:44:34;10.93;;;4.75;;
13590;SDS011;6866;50.778;7.206;2023-07-08T02:46:59;7.55;;;4.45;;
13590;SDS011;6866;50.778;7.206;2023-07-08T02:49:25;9.07;;;4.95;;
13590;SDS011;6866;50.778;7.206;2023-07-08T02:51:51;7.35;;;4.72;;
13590;SDS011;6866;50.778;7.206;2023-07-08T02:54:17;9.38;;;5.00;;
13590;SDS011;6866;50.778;7.206;2023-07-08T02:56:42;8.40;;;5.15;;
13590;SDS011;6866;50.778;7.206;2023-07-08T02:59:08;8.10;;;4.82;;
13590;SDS011;6866;50.778;7.206;2023-07-08T03:01:34;7.95;;;4.65;;
13590;SDS011;6866;50.778;7.206;2023-07-08T03:04:09;8.63;;;4.97;;
13590;SDS011;6866;50.778;7.206;2023-07-08T03:06:39;8.90;;;4.70;;
13590;SDS011;6866;50.778;7.206;2023-07-08T03:09:06;11.73;;;4.45;;
13590;SDS011;6866;50.778;7.206;2023-07-08T03:11:32;7.55;;;4.30;;
13590;SDS011;6866;50.778;7.206;2023-07-08T03:13:58;8.95;;;4.82;;
13590;SDS011;6866;50.778;7.206;2023-07-08T03:16:23;11.32;;;4.82;;
13590;SDS011;6866;50.778;7.206;2023-07-08T03:18:49;8.75;;;4.82;;
13590;SDS011;6866;50.778;7.206;2023-07-08T03:21:15;10.05;;;5.30;;
13590;SDS011;6866;50.778;7.206;2023-07-08T03:23:42;11.60;;;6.00;;
13590;SDS011;6866;50.778;7.206;2023-07-08T03:26:11;9.25;;;5.22;;
13590;SDS011;6866;50.778;7.206;2023-07-08T03:28:39;9.30;;;5.00;;
13590;SDS011;6866;50.778;7.206;2023-07-08T03:31:05;10.88;;;5.10;;
13590;SDS011;6866;50.778;7.206;2023-07-08T03:33:33;8.82;;;4.85;;
13590;SDS011;6866;50.778;7.206;2023-07-08T03:35:59;9.32;;;5.47;;
13590;SDS011;6866;50.778;7.206;2023-07-08T03:38:25;9.70;;;5.43;;
13590;SDS011;6866;50.778;7.206;2023-07-08T03:40:50;11.40;;;6.00;;
13590;SDS011;6866;50.778;7.206;2023-07-08T03:43:16;10.95;;;5.53;;
13590;SDS011;6866;50.778;7.206;2023-07-08T03:45:41;9.50;;;5.32;;
13590;SDS011;6866;50.778;7.206;2023-07-08T03:48:08;10.98;;;5.28;;
13590;SDS011;6866;50.778;7.206;2023-07-08T03:50:36;8.55;;;5.50;;
13590;SDS011;6866;50.778;7.206;2023-07-08T03:53:02;8.07;;;5.05;;
13590;SDS011;6866;50.778;7.206;2023-07-08T03:55:27;10.10;;;6.57;;
13590;SDS011;6866;50.778;7.206;2023-07-08T03:57:53;8.93;;;5.93;;
13590;SDS011;6866;50.778;7.206;2023-07-08T04:00:19;9.45;;;5.70;;
13590;SDS011;6866;50.778;7.206;2023-07-08T04:02:45;9.75;;;5.53;;
13590;SDS011;6866;50.778;7.206;2023-07-08T04:05:14;11.10;;;5.90;;
13590;SDS011;6866;50.778;7.206;2023-07-08T04:07:44;11.48;;;6.18;;
13590;SDS011;6866;50.778;7.206;2023-07-08T04:10:10;14.25;;;6.15;;
13590;SDS011;6866;50.778;7.206;2023-07-08T04:12:37;9.15;;;5.25;;
13590;SDS011;6866;50.778;7.206;2023-07-08T04:15:03;9.25;;;5.28;;
13590;SDS011;6866;50.778;7.206;2023-07-08T04:17:29;11.30;;;5.13;;
13590;SDS011;6866;50.778;7.206;2023-07-08T04:19:55;7.63;;;4.75;;
13590;SDS011;6866;50.778;7.206;2023-07-08T04:22:23;8.63;;;4.75;;
13590;SDS011;6866;50.778;7.206;2023-07-08T04:24:49;9.02;;;4.45;;
13590;SDS011;6866;50.778;7.206;2023-07-08T04:27:15;7.10;;;4.68;;
13590;SDS011;6866;50.778;7.206;2023-07-08T04:29:42;9.27;;;4.88;;
13590;SDS011;6866;50.778;7.206;2023-07-08T04:32:08;10.77;;;4.65;;
13590;SDS011;6866;50.778;7.206;2023-07-08T04:34:34;8.73;;;5.10;;
13590;SDS011;6866;50.778;7.206;2023-07-08T04:36:59;8.57;;;4.63;;
13590;SDS011;6866;50.778;7.206;2023-07-08T04:39:26;8.75;;;4.63;;
13590;SDS011;6866;50.778;7.206;2023-07-08T04:41:52;7.93;;;4.68;;
13590;SDS011;6866;50.778;7.206;2023-07-08T04:44:18;8.25;;;4.78;;
13590;SDS011;6866;50.778;7.206;2023-07-08T04:49:19;6.68;;;4.03;;
13590;SDS011;6866;50.778;7.206;2023-07-08T04:51:45;8.27;;;4.45;;
13590;SDS011;6866;50.778;7.206;2023-07-08T04:54:11;8.10;;;4.38;;
13590;SDS011;6866;50.778;7.206;2023-07-08T04:59:07;7.53;;;4.10;;
13590;SDS011;6866;50.778;7.206;2023-07-08T05:01:35;8.35;;;4.65;;
13590;SDS011;6866;50.778;7.206;2023-07-08T05:04:00;7.43;;;4.00;;
13590;SDS011;6866;50.778;7.206;2023-07-08T05:06:27;7.53;;;4.20;;
13590;SDS011;6866;50.778;7.206;2023-07-08T05:08:53;6.25;;;3.88;;
13590;SDS011;6866;50.778;7.206;2023-07-08T05:11:18;8.10;;;4.03;;
13590;SDS011;6866;50.778;7.206;2023-07-08T05:13:44;8.85;;;4.13;;
13590;SDS011;6866;50.778;7.206;2023-07-08T05:16:09;6.90;;;4.32;;
13590;SDS011;6866;50.778;7.206;2023-07-08T05:18:35;7.88;;;3.85;;
13590;SDS011;6866;50.778;7.206;2023-07-08T05:21:01;8.15;;;4.25;;
13590;SDS011;6866;50.778;7.206;2023-07-08T05:23:28;7.03;;;4.15;;
13590;SDS011;6866;50.778;7.206;2023-07-08T05:25:54;7.35;;;3.90;;
13590;SDS011;6866;50.778;7.206;2023-07-08T05:28:19;7.13;;;4.30;;
13590;SDS011;6866;50.778;7.206;2023-07-08T05:30:46;8.95;;;4.03;;
13590;SDS011;6866;50.778;7.206;2023-07-08T05:33:12;9.32;;;4.35;;
13590;SDS011;6866;50.778;7.206;2023-07-08T05:35:38;7.20;;;4.18;;
13590;SDS011;6866;50.778;7.206;2023-07-08T05:38:03;7.13;;;4.22;;
13590;SDS011;6866;50.778;7.206;2023-07-08T05:40:29;9.93;;;4.20;;
13590;SDS011;6866;50.778;7.206;2023-07-08T05:42:54;7.45;;;3.97;;
13590;SDS011;6866;50.778;7.206;2023-07-08T05:45:20;7.38;;;4.13;;
13590;SDS011;6866;50.778;7.206;2023-07-08T05:47:45;8.50;;;4.32;;
13590;SDS011;6866;50.778;7.206;2023-07-08T05:50:11;8.40;;;4.53;;
13590;SDS011;6866;50.778;7.206;2023-07-08T05:52:36;9.60;;;4.50;;
13590;SDS011;6866;50.778;7.206;2023-07-08T05:55:02;8.50;;;4.40;;
13590;SDS011;6866;50.778;7.206;2023-07-08T05:57:27;11.55;;;4.72;;
13590;SDS011;6866;50.778;7.206;2023-07-08T05:59:53;6.80;;;4.20;;
13590;SDS011;6866;50.778;7.206;2023-07-08T06:02:19;9.70;;;4.68;;
13590;SDS011;6866;50.778;7.206;2023-07-08T06:04:46;8.20;;;4.70;;
13590;SDS011;6866;50.778;7.206;2023-07-08T06:07:12;8.95;;;4.57;;
13590;SDS011;6866;50.778;7.206;2023-07-08T06:09:38;6.72;;;4.35;;
13590;SDS011;6866;50.778;7.206;2023-07-08T06:12:03;6.70;;;4.32;;
13590;SDS011;6866;50.778;7.206;2023-07-08T06:14:29;6.80;;;4.32;;
13590;SDS011;6866;50.778;7.206;2023-07-08T06:16:55;6.63;;;3.88;;
13590;SDS011;6866;50.778;7.206;2023-07-08T06:19:22;12.00;;;4.22;;
13590;SDS011;6866;50.778;7.206;2023-07-08T06:21:48;7.10;;;4.10;;
13590;SDS011;6866;50.778;7.206;2023-07-08T06:24:13;6.95;;;4.18;;
13590;SDS011;6866;50.778;7.206;2023-07-08T06:26:39;6.38;;;4.00;;
13590;SDS011;6866;50.778;7.206;2023-07-08T06:29:04;6.07;;;3.95;;
13590;SDS011;6866;50.778;7.206;2023-07-08T06:48:31;5.55;;;4.03;;
13590;SDS011;6866;50.778;7.206;2023-07-08T06:50:57;6.80;;;3.83;;
13590;SDS011;6866;50.778;7.206;2023-07-08T06:53:23;8.57;;;4.50;;
13590;SDS011;6866;50.778;7.206;2023-07-08T06:55:48;7.25;;;4.15;;
13590;SDS011;6866;50.778;7.206;2023-07-08T06:58:14;6.75;;;3.95;;
13590;SDS011;6866;50.778;7.206;2023-07-08T07:00:43;6.38;;;4.10;;
13590;SDS011;6866;50.778;7.206;2023-07-08T07:03:09;6.85;;;4.20;;
13590;SDS011;6866;50.778;7.206;2023-07-08T07:05:35;7.15;;;4.30;;
13590;SDS011;6866;50.778;7.206;2023-07-08T07:08:01;6.72;;;4.38;;
13590;SDS011;6866;50.778;7.206;2023-07-08T07:20:08;7.35;;;4.78;;
13590;SDS011;6866;50.778;7.206;2023-07-08T07:22:34;7.45;;;5.38;;
13590;SDS011;6866;50.778;7.206;2023-07-08T07:25:00;7.40;;;5.00;;
13590;SDS011;6866;50.778;7.206;2023-07-08T07:27:26;7.53;;;5.00;;
13590;SDS011;6866;50.778;7.206;2023-07-08T07:29:51;6.63;;;4.93;;
13590;SDS011;6866;50.778;7.206;2023-07-08T07:32:17;6.60;;;4.68;;
13590;SDS011;6866;50.778;7.206;2023-07-08T07:34:47;7.85;;;5.13;;
13590;SDS011;6866;50.778;7.206;2023-07-08T07:37:13;8.38;;;5.13;;
13590;SDS011;6866;50.778;7.206;2023-07-08T07:39:41;6.75;;;4.72;;
13590;SDS011;6866;50.778;7.206;2023-07-08T07:56:40;8.05;;;4.90;;
13590;SDS011;6866;50.778;7.206;2023-07-08T07:59:05;9.23;;;5.00;;
13590;SDS011;6866;50.778;7.206;2023-07-08T08:18:30;7.72;;;4.60;;
13590;SDS011;6866;50.778;7.206;2023-07-08T08:53:03;6.55;;;3.78;;
13590;SDS011;6866;50.778;7.206;2023-07-08T08:55:30;7.72;;;3.90;;
13590;SDS011;6866;50.778;7.206;2023-07-08T09:00:53;7.10;;;3.80;;
13590;SDS011;6866;50.778;7.206;2023-07-08T09:03:32;6.22;;;3.28;;
13590;SDS011;6866;50.778;7.206;2023-07-08T09:06:04;5.82;;;3.70;;
13590;SDS011;6866;50.778;7.206;2023-07-08T09:08:35;7.50;;;3.85;;
13590;SDS011;6866;50.778;7.206;2023-07-08T09:13:47;8.40;;;4.00;;
13590;SDS011;6866;50.778;7.206;2023-07-08T09:18:49;7.68;;;3.75;;
13590;SDS011;6866;50.778;7.206;2023-07-08T09:24:31;7.20;;;3.65;;
13590;SDS011;6866;50.778;7.206;2023-07-08T09:27:04;7.70;;;4.03;;
13590;SDS011;6866;50.778;7.206;2023-07-08T09:29:31;6.47;;;3.63;;
13590;SDS011;6866;50.778;7.206;2023-07-08T09:31:58;7.30;;;4.38;;
13590;SDS011;6866;50.778;7.206;2023-07-08T09:34:24;6.20;;;3.63;;
13590;SDS011;6866;50.778;7.206;2023-07-08T09:37:03;8.85;;;3.80;;
13590;SDS011;6866;50.778;7.206;2023-07-08T09:39:42;6.18;;;3.80;;
13590;SDS011;6866;50.778;7.206;2023-07-08T09:42:08;7.93;;;4.07;;
13590;SDS011;6866;50.778;7.206;2023-07-08T09:44:34;7.35;;;4.13;;
13590;SDS011;6866;50.778;7.206;2023-07-08T09:47:15;8.45;;;3.88;;
13590;SDS011;6866;50.778;7.206;2023-07-08T09:49:46;7.55;;;4.43;;
13590;SDS011;6866;50.778;7.206;2023-07-08T09:52:12;7.13;;;4.25;;
13590;SDS011;6866;50.778;7.206;2023-07-08T09:54:39;8.15;;;3.70;;
13590;SDS011;6866;50.778;7.206;2023-07-08T09:57:16;7.18;;;4.13;;
13590;SDS011;6866;50.778;7.206;2023-07-08T10:00:00;8.85;;;4.03;;
13590;SDS011;6866;50.778;7.206;2023-07-08T10:02:49;7.88;;;4.30;;
13590;SDS011;6866;50.778;7.206;2023-07-08T10:05:23;6.80;;;4.15;;
13590;SDS011;6866;50.778;7.206;2023-07-08T10:07:55;6.22;;;3.95;;
13590;SDS011;6866;50.778;7.206;2023-07-08T10:10:26;8.38;;;4.05;;
13590;SDS011;6866;50.778;7.206;2023-07-08T10:13:02;7.60;;;4.05;;
13590;SDS011;6866;50.778;7.206;2023-07-08T10:15:48;8.25;;;4.10;;
13590;SDS011;6866;50.778;7.206;2023-07-08T10:18:20;8.70;;;4.25;;
13590;SDS011;6866;50.778;7.206;2023-07-08T10:21:02;6.93;;;4.20;;
13590;SDS011;6866;50.778;7.206;2023-07-08T10:23:43;7.30;;;4.40;;
13590;SDS011;6866;50.778;7.206;2023-07-08T10:28:58;6.88;;;4.35;;
13590;SDS011;6866;50.778;7.206;2023-07-08T10:31:47;8.85;;;4.30;;
13590;SDS011;6866;50.778;7.206;2023-07-08T10:34:39;9.00;;;4.47;;
13590;SDS011;6866;50.778;7.206;2023-07-08T10:40:21;8.57;;;4.30;;
13590;SDS011;6866;50.778;7.206;2023-07-08T10:46:10;6.82;;;4.40;;
13590;SDS011;6866;50.778;7.206;2023-07-08T10:51:36;6.80;;;4.10;;
13590;SDS011;6866;50.778;7.206;2023-07-08T11:00:55;9.73;;;4.60;;
13590;SDS011;6866;50.778;7.206;2023-07-08T11:06:01;7.43;;;3.90;;
13590;SDS011;6866;50.778;7.206;2023-07-08T11:08:32;7.45;;;4.25;;
13590;SDS011;6866;50.778;7.206;2023-07-08T11:13:44;7.82;;;4.20;;
13590;SDS011;6866;50.778;7.206;2023-07-08T11:16:26;8.23;;;4.00;;
13590;SDS011;6866;50.778;7.206;2023-07-08T11:19:00;7.05;;;3.67;;
13590;SDS011;6866;50.778;7.206;2023-07-08T11:21:32;7.75;;;4.38;;
13590;SDS011;6866;50.778;7.206;2023-07-08T11:24:13;7.90;;;4.30;;
13590;SDS011;6866;50.778;7.206;2023-07-08T11:26:47;9.38;;;4.20;;
13590;SDS011;6866;50.778;7.206;2023-07-08T11:29:35;6.50;;;3.92;;
13590;SDS011;6866;50.778;7.206;2023-07-08T11:32:08;7.93;;;4.05;;
13590;SDS011;6866;50.778;7.206;2023-07-08T11:34:38;7.13;;;4.50;;
13590;SDS011;6866;50.778;7.206;2023-07-08T11:37:07;7.57;;;4.40;;
13590;SDS011;6866;50.778;7.206;2023-07-08T11:39:43;8.50;;;4.90;;
13590;SDS011;6866;50.778;7.206;2023-07-08T11:42:17;9.00;;;4.75;;
13590;SDS011;6866;50.778;7.206;2023-07-08T11:45:05;8.82;;;4.50;;
13590;SDS011;6866;50.778;7.206;2023-07-08T11:47:44;7.85;;;4.30;;
13590;SDS011;6866;50.778;7.206;2023-07-08T11:53:03;8.35;;;4.63;;
13590;SDS011;6866;50.778;7.206;2023-07-08T11:55:36;9.95;;;4.95;;
13590;SDS011;6866;50.778;7.206;2023-07-08T11:58:08;9.75;;;5.10;;
13590;SDS011;6866;50.778;7.206;2023-07-08T12:00:44;8.68;;;4.43;;
13590;SDS011;6866;50.778;7.206;2023-07-08T12:03:50;14.40;;;4.95;;
13590;SDS011;6866;50.778;7.206;2023-07-08T12:08:57;8.45;;;4.80;;
13590;SDS011;6866;50.778;7.206;2023-07-08T12:11:34;11.15;;;4.63;;
13590;SDS011;6866;50.778;7.206;2023-07-08T12:14:01;7.00;;;4.50;;
13590;SDS011;6866;50.778;7.206;2023-07-08T12:16:29;7.43;;;4.43;;
13590;SDS011;6866;50.778;7.206;2023-07-08T12:18:57;7.35;;;4.35;;
13590;SDS011;6866;50.778;7.206;2023-07-08T12:21:25;7.22;;;4.45;;
13590;SDS011;6866;50.778;7.206;2023-07-08T12:23:52;8.77;;;4.78;;
13590;SDS011;6866;50.778;7.206;2023-07-08T12:26:19;8.77;;;4.68;;
13590;SDS011;6866;50.778;7.206;2023-07-08T12:28:46;9.02;;;4.50;;
13590;SDS011;6866;50.778;7.206;2023-07-08T12:31:13;8.73;;;4.57;;
13590;SDS011;6866;50.778;7.206;2023-07-08T12:33:41;8.30;;;4.90;;
13590;SDS011;6866;50.778;7.206;2023-07-08T12:36:09;8.77;;;4.63;;
13590;SDS011;6866;50.778;7.206;2023-07-08T12:38:39;11.25;;;4.97;;
13590;SDS011;6866;50.778;7.206;2023-07-08T12:41:11;8.25;;;4.70;;
13590;SDS011;6866;50.778;7.206;2023-07-08T12:43:39;7.55;;;4.57;;
13590;SDS011;6866;50.778;7.206;2023-07-08T12:46:04;9.90;;;4.90;;
13590;SDS011;6866;50.778;7.206;2023-07-08T12:48:34;7.22;;;4.43;;
13590;SDS011;6866;50.778;7.206;2023-07-08T12:51:04;9.23;;;4.80;;
13590;SDS011;6866;50.778;7.206;2023-07-08T12:53:31;9.18;;;4.60;;
13590;SDS011;6866;50.778;7.206;2023-07-08T12:55:59;7.20;;;4.47;;
13590;SDS011;6866;50.778;7.206;2023-07-08T12:58:26;9.40;;;4.50;;
13590;SDS011;6866;50.778;7.206;2023-07-08T13:00:53;8.73;;;5.03;;
13590;SDS011;6866;50.778;7.206;2023-07-08T13:03:21;9.05;;;4.70;;
13590;SDS011;6866;50.778;7.206;2023-07-08T13:05:49;8.93;;;4.50;;
13590;SDS011;6866;50.778;7.206;2023-07-08T13:08:18;7.68;;;4.72;;
13590;SDS011;6866;50.778;7.206;2023-07-08T13:10:46;8.48;;;4.30;;
13590;SDS011;6866;50.778;7.206;2023-07-08T13:13:20;9.55;;;5.18;;
13590;SDS011;6866;50.778;7.206;2023-07-08T13:18:20;9.13;;;4.93;;
13590;SDS011;6866;50.778;7.206;2023-07-08T13:20:58;7.85;;;4.50;;
13590;SDS011;6866;50.778;7.206;2023-07-08T13:23:24;8.55;;;4.68;;
13590;SDS011;6866;50.778;7.206;2023-07-08T13:25:52;8.18;;;4.30;;
13590;SDS011;6866;50.778;7.206;2023-07-08T13:28:20;8.00;;;4.65;;
13590;SDS011;6866;50.778;7.206;2023-07-08T13:30:55;7.38;;;4.80;;
13590;SDS011;6866;50.778;7.206;2023-07-08T13:33:22;10.75;;;4.63;;
13590;SDS011;6866;50.778;7.206;2023-07-08T13:35:49;10.00;;;4.78;;
13590;SDS011;6866;50.778;7.206;2023-07-08T13:38:20;7.22;;;4.50;;
13590;SDS011;6866;50.778;7.206;2023-07-08T13:40:51;6.18;;;4.38;;
13590;SDS011;6866;50.778;7.206;2023-07-08T13:45:48;8.63;;;4.80;;
13590;SDS011;6866;50.778;7.206;2023-07-08T13:48:24;7.47;;;4.60;;
13590;SDS011;6866;50.778;7.206;2023-07-08T13:51:06;8.43;;;5.00;;
13590;SDS011;6866;50.778;7.206;2023-07-08T13:56:13;8.45;;;4.72;;
13590;SDS011;6866;50.778;7.206;2023-07-08T13:58:44;7.40;;;4.60;;
13590;SDS011;6866;50.778;7.206;2023-07-08T14:01:15;9.65;;;5.07;;
13590;SDS011;6866;50.778;7.206;2023-07-08T14:03:43;8.95;;;4.78;;
13590;SDS011;6866;50.778;7.206;2023-07-08T14:06:13;10.20;;;4.63;;
13590;SDS011;6866;50.778;7.206;2023-07-08T14:08:43;10.00;;;4.75;;
13590;SDS011;6866;50.778;7.206;2023-07-08T14:11:09;11.65;;;5.18;;
13590;SDS011;6866;50.778;7.206;2023-07-08T14:13:34;8.75;;;4.65;;
13590;SDS011;6866;50.778;7.206;2023-07-08T14:16:00;8.57;;;4.88;;
13590;SDS011;6866;50.778;7.206;2023-07-08T14:18:30;7.35;;;4.65;;
13590;SDS011;6866;50.778;7.206;2023-07-08T14:20:57;7.25;;;4.75;;
13590;SDS011;6866;50.778;7.206;2023-07-08T14:23:23;7.78;;;4.97;;
13590;SDS011;6866;50.778;7.206;2023-07-08T14:25:49;12.13;;;5.05;;
13590;SDS011;6866;50.778;7.206;2023-07-08T14:28:14;9.25;;;5.07;;
13590;SDS011;6866;50.778;7.206;2023-07-08T14:30:49;11.05;;;5.18;;
13590;SDS011;6866;50.778;7.206;2023-07-08T14:33:14;8.10;;;4.97;;
13590;SDS011;6866;50.778;7.206;2023-07-08T14:35:40;12.50;;;5.22;;
13590;SDS011;6866;50.778;7.206;2023-07-08T14:38:12;9.32;;;5.35;;
13590;SDS011;6866;50.778;7.206;2023-07-08T14:40:39;13.18;;;5.55;;
13590;SDS011;6866;50.778;7.206;2023-07-08T14:43:09;8.52;;;5.13;;
13590;SDS011;6866;50.778;7.206;2023-07-08T14:45:49;10.82;;;5.10;;
13590;SDS011;6866;50.778;7.206;2023-07-08T14:48:17;10.30;;;5.30;;
13590;SDS011;6866;50.778;7.206;2023-07-08T14:50:43;9.15;;;5.30;;
13590;SDS011;6866;50.778;7.206;2023-07-08T14:53:08;12.05;;;5.40;;
13590;SDS011;6866;50.778;7.206;2023-07-08T14:55:34;10.02;;;5.05;;
13590;SDS011;6866;50.778;7.206;2023-07-08T14:58:01;10.60;;;5.15;;
13590;SDS011;6866;50.778;7.206;2023-07-08T15:00:28;8.80;;;5.20;;
13590;SDS011;6866;50.778;7.206;2023-07-08T15:02:54;10.90;;;5.00;;
13590;SDS011;6866;50.778;7.206;2023-07-08T15:07:50;8.68;;;5.35;;
13590;SDS011;6866;50.778;7.206;2023-07-08T15:10:18;9.63;;;5.10;;
13590;SDS011;6866;50.778;7.206;2023-07-08T15:12:45;9.23;;;5.13;;
13590;SDS011;6866;50.778;7.206;2023-07-08T15:15:20;8.55;;;5.30;;
13590;SDS011;6866;50.778;7.206;2023-07-08T15:17:55;8.15;;;4.97;;
13590;SDS011;6866;50.778;7.206;2023-07-08T15:20:21;9.25;;;5.38;;
13590;SDS011;6866;50.778;7.206;2023-07-08T15:22:47;8.80;;;5.15;;
13590;SDS011;6866;50.778;7.206;2023-07-08T15:25:13;10.55;;;5.60;;
13590;SDS011;6866;50.778;7.206;2023-07-08T15:27:40;9.75;;;4.95;;
13590;SDS011;6866;50.778;7.206;2023-07-08T15:30:14;9.52;;;5.18;;
13590;SDS011;6866;50.778;7.206;2023-07-08T15:32:41;10.23;;;4.97;;
13590;SDS011;6866;50.778;7.206;2023-07-08T15:35:10;10.77;;;4.90;;
13590;SDS011;6866;50.778;7.206;2023-07-08T15:37:41;8.63;;;5.20;;
13590;SDS011;6866;50.778;7.206;2023-07-08T15:40:08;8.70;;;5.40;;
13590;SDS011;6866;50.778;7.206;2023-07-08T15:42:36;9.40;;;4.88;;
13590;SDS011;6866;50.778;7.206;2023-07-08T15:45:07;10.90;;;5.38;;
13590;SDS011;6866;50.778;7.206;2023-07-08T15:47:41;11.68;;;5.15;;
13590;SDS011;6866;50.778;7.206;2023-07-08T15:50:09;9.35;;;5.28;;
13590;SDS011;6866;50.778;7.206;2023-07-08T15:52:36;11.73;;;5.03;;
13590;SDS011;6866;50.778;7.206;2023-07-08T15:55:02;8.90;;;5.18;;
13590;SDS011;6866;50.778;7.206;2023-07-08T15:57:27;10.50;;;5.25;;
13590;SDS011;6866;50.778;7.206;2023-07-08T15:59:53;9.77;;;5.15;;
13590;SDS011;6866;50.778;7.206;2023-07-08T16:02:24;9.88;;;4.90;;
13590;SDS011;6866;50.778;7.206;2023-07-08T16:04:52;9.02;;;5.35;;
13590;SDS011;6866;50.778;7.206;2023-07-08T16:07:17;14.10;;;4.95;;
13590;SDS011;6866;50.778;7.206;2023-07-08T16:09:43;9.93;;;5.35;;
13590;SDS011;6866;50.778;7.206;2023-07-08T16:12:10;12.30;;;5.32;;
13590;SDS011;6866;50.778;7.206;2023-07-08T16:14:38;11.73;;;5.25;;
13590;SDS011;6866;50.778;7.206;2023-07-08T16:17:07;10.32;;;5.35;;
13590;SDS011;6866;50.778;7.206;2023-07-08T16:22:00;10.57;;;5.80;;
13590;SDS011;6866;50.778;7.206;2023-07-08T16:24:26;12.73;;;5.22;;
13590;SDS011;6866;50.778;7.206;2023-07-08T16:26:52;8.27;;;5.57;;
13590;SDS011;6866;50.778;7.206;2023-07-08T16:29:17;9.00;;;4.97;;
13590;SDS011;6866;50.778;7.206;2023-07-08T16:31:43;8.93;;;5.25;;
13590;SDS011;6866;50.778;7.206;2023-07-08T16:34:09;8.57;;;5.60;;
13590;SDS011;6866;50.778;7.206;2023-07-08T16:36:35;8.18;;;5.40;;
13590;SDS011;6866;50.778;7.206;2023-07-08T16:39:01;10.55;;;5.05;;
13590;SDS011;6866;50.778;7.206;2023-07-08T16:41:31;7.57;;;4.82;;
13590;SDS011;6866;50.778;7.206;2023-07-08T16:44:00;10.70;;;5.55;;
13590;SDS011;6866;50.778;7.206;2023-07-08T16:46:39;9.18;;;5.28;;
13590;SDS011;6866;50.778;7.206;2023-07-08T16:49:06;9.70;;;5.57;;
13590;SDS011;6866;50.778;7.206;2023-07-08T16:51:32;8.43;;;5.47;;
13590;SDS011;6866;50.778;7.206;2023-07-08T16:54:16;8.27;;;5.05;;
13590;SDS011;6866;50.778;7.206;2023-07-08T16:56:43;13.25;;;5.00;;
13590;SDS011;6866;50.778;7.206;2023-07-08T16:59:10;11.75;;;5.10;;
13590;SDS011;6866;50.778;7.206;2023-07-08T17:01:37;8.32;;;5.53;;
13590;SDS011;6866;50.778;7.206;2023-07-08T17:04:03;7.93;;;4.88;;
13590;SDS011;6866;50.778;7.206;2023-07-08T17:06:28;12.13;;;5.45;;
13590;SDS011;6866;50.778;7.206;2023-07-08T17:08:54;8.70;;;5.30;;
13590;SDS011;6866;50.778;7.206;2023-07-08T17:11:20;10.77;;;4.88;;
13590;SDS011;6866;50.778;7.206;2023-07-08T17:13:46;10.93;;;5.07;;
13590;SDS011;6866;50.778;7.206;2023-07-08T17:16:12;13.00;;;7.40;;
13590;SDS011;6866;50.778;7.206;2023-07-08T17:18:41;12.82;;;6.53;;
13590;SDS011;6866;50.778;7.206;2023-07-08T17:21:08;11.10;;;5.60;;
13590;SDS011;6866;50.778;7.206;2023-07-08T17:26:03;9.70;;;5.28;;
13590;SDS011;6866;50.778;7.206;2023-07-08T17:28:29;8.20;;;5.30;;
13590;SDS011;6866;50.778;7.206;2023-07-08T17:30:54;13.65;;;5.90;;
13590;SDS011;6866;50.778;7.206;2023-07-08T17:33:20;11.95;;;5.60;;
13590;SDS011;6866;50.778;7.206;2023-07-08T17:35:48;11.45;;;5.65;;
13590;SDS011;6866;50.778;7.206;2023-07-08T17:38:14;13.80;;;5.80;;
13590;SDS011;6866;50.778;7.206;2023-07-08T17:40:45;9.82;;;4.97;;
13590;SDS011;6866;50.778;7.206;2023-07-08T17:43:10;10.18;;;4.97;;
13590;SDS011;6866;50.778;7.206;2023-07-08T17:45:40;11.52;;;5.35;;